Time;durP1;ratioP1;P1;durP2;ratioP2;P2;SDS_P1;SDS_P2;PMS_P1;PMS_P2;Temp;Humidity;BMP_temperature;BMP_pressure;BME280_temperature;BME280_humidity;BME280_pressure;Samples;Min_cycle;Max_cycle;Signal;HPM_P1;HPM_P2
2022/09/02 00:01:18;;;;;;;6.40;1.33;;;14.90;66.80;;;;;;4985979;28;20033;-80
2022/09/02 00:03:43;;;;;;;2.30;1.20;;;14.80;69.00;;;;;;4982128;28;20114;-80
2022/09/02 00:06:09;;;;;;;5.72;1.38;;;14.80;68.90;;;;;;4973324;28;20144;-80
2022/09/02 00:08:36;;;;;;;5.72;1.10;;;14.70;69.00;;;;;;4984225;28;20568;-79
2022/09/02 00:11:04;;;;;;;7.20;1.35;;;14.70;68.80;;;;;;4984349;28;20049;-80
2022/09/02 00:13:30;;;;;;;6.13;1.63;;;14.80;68.70;;;;;;4966013;28;20587;-80
2022/09/02 00:15:55;;;;;;;3.92;1.48;;;14.80;67.80;;;;;;4983834;28;20030;-80
2022/09/02 00:18:23;;;;;;;4.95;1.30;;;14.70;69.30;;;;;;4966533;28;20065;-80
2022/09/02 00:20:49;;;;;;;3.25;1.00;;;14.60;68.70;;;;;;4970811;28;20038;-80
2022/09/02 00:23:15;;;;;;;1.95;1.15;;;14.60;69.00;;;;;;4972701;28;20030;-80
2022/09/02 00:25:43;;;;;;;4.35;1.50;;;14.50;69.20;;;;;;4986825;28;20034;-80
2022/09/02 00:28:09;;;;;;;2.47;1.23;;;14.60;69.70;;;;;;4975853;28;20030;-80
2022/09/02 00:30:34;;;;;;;3.42;1.35;;;14.50;69.80;;;;;;4987707;28;20092;-80
2022/09/02 00:33:00;;;;;;;2.40;1.30;;;14.50;69.90;;;;;;4984891;28;20036;-79
2022/09/02 00:35:25;;;;;;;1.00;0.90;;;14.40;69.70;;;;;;4985166;28;20053;-80
2022/09/02 00:37:51;;;;;;;1.90;1.10;;;14.50;69.80;;;;;;4967631;28;20031;-79
2022/09/02 00:40:17;;;;;;;2.13;1.00;;;14.30;68.20;;;;;;4975721;28;20120;-80
2022/09/02 00:42:42;;;;;;;3.80;1.65;;;14.30;70.00;;;;;;4985640;28;20080;-80
2022/09/02 00:45:09;;;;;;;3.15;1.23;;;14.30;70.60;;;;;;4973536;28;20097;-80
2022/09/02 00:47:35;;;;;;;3.88;1.55;;;14.30;70.50;;;;;;4979405;28;20467;-79
2022/09/02 00:50:02;;;;;;;3.55;1.15;;;14.30;70.00;;;;;;4974917;28;20044;-79
2022/09/02 00:52:38;;;;;;;6.00;1.02;;;14.30;68.80;;;;;;4980591;28;20042;-80
2022/09/02 00:55:15;;;;;;;1.88;1.20;;;14.30;70.90;;;;;;4965330;28;20042;-80
2022/09/02 00:57:46;;;;;;;3.08;1.38;;;14.30;70.20;;;;;;4972753;28;20037;-80
2022/09/02 01:00:23;;;;;;;3.45;1.20;;;14.20;69.50;;;;;;4968882;28;20117;-80
2022/09/02 01:02:57;;;;;;;3.13;1.23;;;14.20;70.30;;;;;;4982626;28;20486;-79
2022/09/02 01:05:25;;;;;;;1.50;1.40;;;14.20;71.40;;;;;;4966116;28;20056;-80
2022/09/02 01:07:51;;;;;;;6.25;1.73;;;14.20;71.20;;;;;;4983966;28;20112;-79
2022/09/02 01:10:20;;;;;;;3.10;1.20;;;14.20;69.00;;;;;;4973758;28;20058;-80
2022/09/02 01:12:46;;;;;;;3.60;1.20;;;14.20;71.30;;;;;;4986124;28;20034;-79
2022/09/02 01:15:12;;;;;;;1.90;1.10;;;14.10;70.40;;;;;;4970728;28;20040;-80
2022/09/02 01:17:40;;;;;;;2.63;1.00;;;14.10;71.50;;;;;;4984431;28;20482;-80
2022/09/02 01:20:10;;;;;;;5.80;1.23;;;14.20;69.80;;;;;;4957298;28;20085;-79
2022/09/02 01:22:36;;;;;;;4.13;1.30;;;14.10;68.50;;;;;;4949531;28;20035;-79
2022/09/02 01:25:05;;;;;;;4.10;1.30;;;14.00;71.20;;;;;;4971773;28;20029;-80
2022/09/02 01:27:31;;;;;;;2.60;1.27;;;14.00;71.50;;;;;;4964482;28;20368;-79
2022/09/02 01:29:59;;;;;;;4.95;1.55;;;14.10;70.10;;;;;;4966166;28;20030;-80
2022/09/02 01:32:26;;;;;;;3.03;1.30;;;14.10;70.90;;;;;;4955838;28;21136;-80
2022/09/02 01:34:51;;;;;;;2.85;1.20;;;14.00;70.40;;;;;;4969824;28;20030;-79
2022/09/02 01:37:17;;;;;;;2.10;1.30;;;14.00;70.00;;;;;;4963815;28;20084;-80
2022/09/02 01:39:43;;;;;;;6.05;1.35;;;14.00;69.60;;;;;;4951854;28;20026;-79
2022/09/02 01:42:09;;;;;;;4.22;1.60;;;14.00;70.70;;;;;;4966747;28;20041;-80
2022/09/02 01:44:42;;;;;;;4.25;1.70;;;14.00;70.70;;;;;;4984515;28;20026;-79
2022/09/02 01:47:12;;;;;;;6.00;1.42;;;14.00;71.70;;;;;;4971640;28;20436;-80
2022/09/02 01:49:38;;;;;;;4.10;1.52;;;13.90;70.30;;;;;;4965883;28;20061;-79
2022/09/02 01:52:03;;;;;;;1.50;1.40;;;13.80;72.80;;;;;;4982497;28;20034;-79
2022/09/02 01:54:29;;;;;;;2.88;1.75;;;13.80;73.00;;;;;;4982354;28;20485;-80
2022/09/02 01:56:54;;;;;;;8.77;1.80;;;13.80;71.70;;;;;;4982448;28;20061;-79
2022/09/02 01:59:20;;;;;;;7.10;1.38;;;13.80;72.80;;;;;;4957709;28;20027;-79
2022/09/02 02:01:46;;;;;;;4.60;1.55;;;13.80;72.80;;;;;;4990970;28;20030;-79
2022/09/02 02:04:11;;;;;;;1.27;0.98;;;13.70;72.10;;;;;;4983082;28;20040;-80
2022/09/02 02:06:43;;;;;;;4.57;1.30;;;13.70;72.70;;;;;;4965571;28;20034;-79
2022/09/02 02:09:10;;;;;;;6.00;1.50;;;13.70;73.50;;;;;;4985854;28;20040;-80
2022/09/02 02:11:35;;;;;;;2.97;1.08;;;13.60;72.60;;;;;;4981896;28;20118;-79
2022/09/02 02:14:01;;;;;;;2.28;1.23;;;13.60;71.60;;;;;;5005779;28;20683;-80
2022/09/02 02:16:26;;;;;;;6.38;1.23;;;13.50;71.90;;;;;;4955832;28;20089;-80
2022/09/02 02:18:52;;;;;;;3.90;1.38;;;13.60;73.20;;;;;;4960635;28;20050;-79
2022/09/02 02:21:18;;;;;;;3.97;1.48;;;13.60;73.70;;;;;;4955093;28;20035;-80
2022/09/02 02:23:43;;;;;;;1.65;1.20;;;13.60;73.70;;;;;;4990323;28;20034;-80
2022/09/02 02:26:09;;;;;;;3.47;1.48;;;13.50;72.00;;;;;;4985303;28;20038;-80
2022/09/02 02:28:35;;;;;;;2.90;1.42;;;13.40;72.10;;;;;;4968952;28;20030;-79
2022/09/02 02:31:00;;;;;;;3.88;1.75;;;13.40;73.10;;;;;;4986244;28;20057;-79
2022/09/02 02:33:27;;;;;;;3.30;1.20;;;13.40;72.70;;;;;;4968931;28;20449;-80
2022/09/02 02:35:54;;;;;;;2.90;1.40;;;13.40;72.20;;;;;;4958137;28;20525;-80
2022/09/02 02:38:19;;;;;;;3.75;1.50;;;13.40;72.40;;;;;;4984963;28;20378;-80
2022/09/02 02:40:45;;;;;;;3.53;2.28;;;13.40;74.10;;;;;;4985370;28;20037;-76
2022/09/02 02:43:10;;;;;;;4.20;1.40;;;13.30;72.20;;;;;;4969858;28;20088;-76
2022/09/02 02:45:36;;;;;;;4.82;1.35;;;13.40;74.90;;;;;;4985254;28;20092;-80
2022/09/02 02:48:02;;;;;;;3.20;1.35;;;13.40;73.20;;;;;;4986699;28;20037;-79
2022/09/02 02:50:27;;;;;;;1.52;1.02;;;13.30;74.30;;;;;;4968682;28;20076;-79
2022/09/02 02:52:56;;;;;;;2.78;1.17;;;13.30;74.70;;;;;;4987149;28;20041;-80
2022/09/02 02:55:22;;;;;;;3.33;1.30;;;13.30;73.70;;;;;;4970780;28;20041;-80
2022/09/02 02:57:47;;;;;;;4.00;1.42;;;13.30;72.60;;;;;;4968568;28;20552;-79
2022/09/02 03:00:19;;;;;;;2.97;1.13;;;13.30;74.10;;;;;;4984465;28;20033;-79
2022/09/02 03:02:45;;;;;;;1.90;1.08;;;13.10;73.50;;;;;;4991239;28;20045;-79
2022/09/02 03:05:11;;;;;;;4.07;1.65;;;13.10;73.40;;;;;;4962146;28;20038;-80
2022/09/02 03:07:37;;;;;;;4.03;1.70;;;13.10;74.90;;;;;;4988961;28;20097;-79
2022/09/02 03:10:05;;;;;;;5.30;1.70;;;13.20;75.30;;;;;;4985257;28;20029;-79
2022/09/02 03:12:31;;;;;;;3.67;1.63;;;13.10;75.10;;;;;;4972587;28;20042;-79
2022/09/02 03:14:57;;;;;;;3.03;1.70;;;13.10;75.00;;;;;;4988634;28;20046;-80
2022/09/02 03:17:23;;;;;;;2.40;1.17;;;13.10;75.40;;;;;;4983352;28;20041;-80
2022/09/02 03:19:49;;;;;;;2.95;1.20;;;13.10;74.90;;;;;;4967494;28;20026;-80
2022/09/02 03:22:15;;;;;;;4.82;1.02;;;13.10;74.20;;;;;;4999215;28;20129;-79
2022/09/02 03:24:40;;;;;;;6.43;1.55;;;13.10;75.70;;;;;;4991127;28;20157;-79
2022/09/02 03:27:06;;;;;;;3.25;1.05;;;13.10;74.80;;;;;;4975126;28;20030;-80
2022/09/02 03:29:31;;;;;;;2.83;1.50;;;13.00;75.80;;;;;;4985203;28;20875;-79
2022/09/02 03:31:57;;;;;;;6.40;1.60;;;13.10;75.00;;;;;;4972471;28;20791;-79
2022/09/02 03:34:22;;;;;;;5.82;1.42;;;13.00;76.30;;;;;;4985190;28;20126;-79
2022/09/02 03:36:48;;;;;;;6.00;1.55;;;13.10;74.90;;;;;;4973358;28;20034;-80
2022/09/02 03:39:13;;;;;;;3.05;1.20;;;13.10;74.80;;;;;;4975233;28;20026;-79
2022/09/02 03:41:42;;;;;;;5.40;1.30;;;13.00;75.90;;;;;;4969140;28;20037;-78
2022/09/02 03:44:08;;;;;;;3.80;1.38;;;13.10;75.20;;;;;;4990082;28;20030;-79
2022/09/02 03:46:34;;;;;;;2.58;1.52;;;13.10;75.80;;;;;;4966206;28;20030;-80
2022/09/02 03:48:59;;;;;;;2.28;1.15;;;13.00;75.90;;;;;;4969843;28;20462;-79
2022/09/02 03:51:25;;;;;;;2.92;1.67;;;13.00;73.50;;;;;;4984370;28;20050;-79
2022/09/02 03:53:51;;;;;;;3.75;1.20;;;13.00;75.70;;;;;;4964332;28;20129;-79
2022/09/02 03:56:17;;;;;;;2.38;1.58;;;13.00;73.90;;;;;;4971884;28;20492;-79
2022/09/02 03:58:43;;;;;;;2.30;1.02;;;13.10;72.70;;;;;;4982053;28;20033;-79
2022/09/02 04:01:13;;;;;;;3.97;1.58;;;13.00;76.20;;;;;;4968888;28;20550;-79
2022/09/02 04:03:38;;;;;;;4.63;1.55;;;13.00;76.20;;;;;;4961877;28;20054;-79
2022/09/02 04:06:04;;;;;;;3.00;1.05;;;13.00;76.80;;;;;;4976445;28;20185;-79
2022/09/02 04:08:29;;;;;;;5.82;1.38;;;13.00;75.50;;;;;;4957633;28;20185;-79
2022/09/02 04:10:55;;;;;;;3.72;1.40;;;13.00;76.30;;;;;;4972696;28;20041;-79
2022/09/02 04:13:21;;;;;;;1.60;1.17;;;13.00;73.80;;;;;;4970792;28;20050;-79
2022/09/02 04:15:47;;;;;;;6.05;1.60;;;13.00;75.70;;;;;;4982403;28;20042;-79
2022/09/02 04:18:14;;;;;;;4.90;1.83;;;12.90;75.40;;;;;;4975822;28;20124;-79
2022/09/02 04:20:40;;;;;;;4.10;1.45;;;12.90;77.00;;;;;;4981981;28;20550;-78
2022/09/02 04:23:07;;;;;;;4.65;1.40;;;12.90;77.50;;;;;;4974502;28;20168;-79
2022/09/02 04:25:32;;;;;;;4.30;1.67;;;13.00;76.00;;;;;;4983352;28;20083;-79
2022/09/02 04:27:58;;;;;;;5.25;1.42;;;12.90;74.70;;;;;;4984609;28;20045;-79
2022/09/02 04:30:24;;;;;;;2.58;1.33;;;12.80;77.30;;;;;;4978426;28;20026;-78
2022/09/02 04:32:50;;;;;;;6.45;1.45;;;12.80;78.30;;;;;;4987407;28;20049;-78
2022/09/02 04:35:16;;;;;;;1.70;1.40;;;12.70;76.90;;;;;;4973447;28;20034;-79
2022/09/02 04:37:41;;;;;;;6.18;1.50;;;12.80;78.00;;;;;;4980568;28;20485;-78
2022/09/02 04:40:07;;;;;;;5.05;1.67;;;12.90;79.60;;;;;;4968755;28;20490;-78
2022/09/02 04:42:33;;;;;;;6.47;1.55;;;12.80;78.90;;;;;;4955960;28;20069;-78
2022/09/02 04:44:59;;;;;;;9.32;2.53;;;12.80;78.90;;;;;;4972887;28;20116;-79
2022/09/02 04:47:25;;;;;;;1.90;1.55;;;12.90;78.50;;;;;;4971489;28;20045;-78
2022/09/02 04:49:50;;;;;;;3.50;1.60;;;12.90;78.90;;;;;;4970932;28;20549;-78
2022/09/02 04:52:16;;;;;;;5.25;1.90;;;12.90;79.70;;;;;;4971515;28;20099;-79
2022/09/02 04:54:42;;;;;;;4.15;1.80;;;12.90;76.60;;;;;;4986570;28;20066;-78
2022/09/02 04:57:08;;;;;;;2.00;1.58;;;12.90;78.20;;;;;;4959663;28;20037;-79
2022/09/02 04:59:35;;;;;;;9.27;2.13;;;12.90;75.40;;;;;;4981032;28;20049;-79
2022/09/02 05:02:01;;;;;;;2.22;1.73;;;12.80;78.60;;;;;;4974191;28;20048;-78
2022/09/02 05:04:27;;;;;;;6.40;1.90;;;13.00;77.70;;;;;;4955774;28;20022;-78
2022/09/02 05:06:53;;;;;;;2.08;1.60;;;12.90;77.70;;;;;;4968488;28;20538;-78
2022/09/02 05:09:19;;;;;;;4.55;1.92;;;12.90;76.10;;;;;;4968933;28;20037;-78
2022/09/02 05:11:46;;;;;;;4.97;1.65;;;12.90;82.50;;;;;;4969078;28;20103;-78
2022/09/02 05:14:15;;;;;;;7.25;1.80;;;12.90;77.20;;;;;;4971144;28;20041;-78
2022/09/02 05:16:41;;;;;;;4.90;2.10;;;12.90;79.80;;;;;;4985863;28;20038;-77
2022/09/02 05:19:09;;;;;;;4.40;1.80;;;12.90;79.80;;;;;;4973020;28;20560;-79
2022/09/02 05:21:38;;;;;;;5.70;1.75;;;12.90;77.50;;;;;;4980018;28;20504;-79
2022/09/02 05:24:04;;;;;;;3.55;1.77;;;12.80;77.70;;;;;;4985911;28;20029;-77
2022/09/02 05:26:32;;;;;;;2.45;2.08;;;12.80;79.70;;;;;;4983627;28;20038;-78
2022/09/02 05:28:59;;;;;;;7.65;1.88;;;12.80;78.80;;;;;;4984999;28;20042;-78
2022/09/02 05:31:25;;;;;;;5.25;2.53;;;12.80;82.80;;;;;;4968517;28;20112;-78
2022/09/02 05:33:52;;;;;;;3.58;1.85;;;12.90;82.20;;;;;;4967122;28;20469;-77
2022/09/02 05:36:19;;;;;;;3.35;2.00;;;13.00;82.40;;;;;;4975148;28;20038;-77
2022/09/02 05:38:44;;;;;;;2.80;1.90;;;13.00;83.10;;;;;;4970579;28;20042;-78
2022/09/02 05:41:18;;;;;;;3.58;1.65;;;13.00;82.30;;;;;;4965131;28;20038;-77
2022/09/02 05:43:44;;;;;;;5.22;2.00;;;13.10;81.70;;;;;;4972044;28;20069;-77
2022/09/02 05:46:11;;;;;;;4.30;2.05;;;13.10;77.80;;;;;;4955045;28;20325;-78
2022/09/02 05:51:23;;;;;;;5.10;2.05;;;13.20;80.20;;;;;;4986631;28;20086;-79
2022/09/02 05:53:52;;;;;;;3.28;1.52;;;13.20;78.90;;;;;;4981218;28;20494;-78
2022/09/02 05:56:18;;;;;;;3.35;2.03;;;13.50;79.10;;;;;;4954746;28;20034;-79
2022/09/02 05:58:44;;;;;;;3.53;1.73;;;13.60;78.10;;;;;;4967649;28;20544;-79
2022/09/02 06:01:10;;;;;;;2.78;1.63;;;13.70;78.10;;;;;;4968102;28;20034;-78
2022/09/02 06:03:36;;;;;;;8.00;1.98;;;13.80;76.60;;;;;;4951573;28;20041;-79
2022/09/02 06:06:02;;;;;;;2.45;1.48;;;14.00;76.00;;;;;;4953331;28;20025;-78
2022/09/02 06:08:28;;;;;;;5.60;2.88;;;14.10;73.60;;;;;;4966276;28;20034;-78
2022/09/02 06:10:54;;;;;;;3.83;1.77;;;14.20;72.80;;;;;;4957479;28;20041;-79
2022/09/02 06:13:21;;;;;;;4.35;1.30;;;14.20;74.60;;;;;;4966521;28;20033;-79
2022/09/02 06:15:48;;;;;;;8.07;1.67;;;14.40;74.00;;;;;;4964666;28;20128;-78
2022/09/02 06:18:13;;;;;;;6.35;1.92;;;14.40;75.20;;;;;;4979432;28;20037;-78
2022/09/02 06:20:43;;;;;;;4.38;1.75;;;14.50;75.80;;;;;;4966437;28;20034;-78
2022/09/02 06:23:09;;;;;;;5.97;1.88;;;14.60;75.40;;;;;;4969822;28;20482;-78
2022/09/02 06:25:38;;;;;;;6.13;1.95;;;14.70;76.10;;;;;;4965196;28;20137;-79
2022/09/02 06:28:04;;;;;;;2.35;1.40;;;14.80;75.50;;;;;;4969979;28;20037;-79
2022/09/02 06:30:29;;;;;;;6.20;1.63;;;14.90;75.80;;;;;;4967523;28;20895;-78
2022/09/02 06:32:55;;;;;;;4.15;1.67;;;14.90;75.00;;;;;;4984424;28;20030;-78
2022/09/02 06:35:21;;;;;;;4.43;2.50;;;15.00;74.60;;;;;;4985468;28;20030;-78
2022/09/02 06:37:47;;;;;;;10.20;2.10;;;15.10;75.80;;;;;;4983582;28;20370;-78
2022/09/02 06:40:13;;;;;;;7.03;1.67;;;15.20;74.90;;;;;;4953209;28;20034;-78
2022/09/02 06:42:39;;;;;;;3.47;1.52;;;15.20;74.50;;;;;;4981602;28;20022;-78
2022/09/02 06:45:06;;;;;;;2.95;1.35;;;15.20;74.30;;;;;;4990474;28;20855;-79
2022/09/02 06:47:31;;;;;;;3.65;1.73;;;15.30;75.00;;;;;;4964018;28;20042;-79
2022/09/02 06:49:57;;;;;;;3.33;1.63;;;15.30;74.50;;;;;;4983583;28;20178;-80
2022/09/02 06:52:23;;;;;;;3.75;1.80;;;15.40;74.40;;;;;;4947361;28;20037;-80
2022/09/02 06:54:49;;;;;;;5.93;1.80;;;15.50;74.40;;;;;;4971642;28;20414;-79
2022/09/02 06:57:26;;;;;;;10.05;1.50;;;15.50;74.00;;;;;;4935795;28;20045;-79
2022/09/02 06:59:51;;;;;;;7.63;2.72;;;15.60;73.90;;;;;;4937067;28;20601;-79
2022/09/02 07:02:17;;;;;;;5.15;1.95;;;15.70;74.10;;;;;;4958163;28;20030;-80
2022/09/02 07:05:28;;;;;;;5.78;1.92;;;15.80;74.40;;;;;;4988613;28;20029;-79
2022/09/02 07:07:28;;;;;;;7.53;2.10;;;15.90;73.60;;;;;;4961644;28;20164;-78
2022/09/02 07:09:54;;;;;;;3.30;1.80;;;16.10;73.80;;;;;;4970602;28;20109;-79
2022/09/02 07:12:20;;;;;;;3.58;2.30;;;16.20;74.20;;;;;;4968367;28;20041;-79
2022/09/02 07:14:45;;;;;;;7.43;2.30;;;16.20;73.60;;;;;;4970811;28;20730;-79
2022/09/02 07:17:16;;;;;;;9.27;2.50;;;16.40;73.60;;;;;;4975085;28;20449;-79
2022/09/02 07:19:42;;;;;;;5.97;2.10;;;16.50;74.80;;;;;;4959028;28;20041;-79
2022/09/02 07:22:08;;;;;;;7.13;2.55;;;16.60;74.50;;;;;;4985766;28;20033;-79
2022/09/02 07:24:34;;;;;;;9.38;1.92;;;16.80;75.60;;;;;;4971672;28;20038;-79
2022/09/02 07:27:00;;;;;;;6.47;2.30;;;16.90;73.70;;;;;;4970109;28;20057;-79
2022/09/02 07:29:26;;;;;;;4.00;1.52;;;17.10;74.30;;;;;;4956085;28;20176;-79
2022/09/02 07:31:52;;;;;;;6.55;1.63;;;17.40;75.50;;;;;;4972226;28;20048;-79
2022/09/02 07:34:18;;;;;;;12.63;2.75;;;17.50;73.70;;;;;;5004297;28;20040;-79
2022/09/02 07:36:44;;;;;;;4.00;1.88;;;17.70;74.50;;;;;;4965607;28;20038;-79
2022/09/02 07:39:13;;;;;;;5.22;1.95;;;17.90;74.80;;;;;;4972382;28;20064;-79
2022/09/02 07:41:39;;;;;;;10.32;2.22;;;18.20;74.90;;;;;;4972076;28;20091;-79
2022/09/02 07:44:05;;;;;;;6.03;2.03;;;18.20;73.50;;;;;;4959306;28;20065;-79
2022/09/02 07:46:31;;;;;;;5.75;2.22;;;18.40;74.60;;;;;;4985952;28;20034;-80
2022/09/02 07:49:00;;;;;;;10.85;1.88;;;18.60;74.70;;;;;;4973094;28;20441;-80
2022/09/02 07:51:26;;;;;;;10.40;2.83;;;18.80;74.00;;;;;;4969150;28;20041;-80
2022/09/02 07:54:11;;;;;;;3.78;1.83;;;18.90;74.40;;;;;;4972090;28;21197;-80
2022/09/02 07:56:51;;;;;;;9.60;2.10;;;19.00;73.20;;;;;;4974733;28;20046;-80
2022/09/02 07:59:17;;;;;;;6.45;2.08;;;19.20;73.60;;;;;;4974640;28;20084;-81
2022/09/02 08:01:42;;;;;;;4.22;1.77;;;19.30;73.30;;;;;;4985506;28;20040;-81
2022/09/02 08:04:08;;;;;;;7.47;2.83;;;19.50;73.10;;;;;;4970698;28;20038;-81
2022/09/02 08:06:34;;;;;;;16.15;2.63;;;19.60;72.80;;;;;;4981835;28;20112;-79
2022/09/02 08:09:05;;;;;;;8.93;2.28;;;19.80;72.80;;;;;;4984743;28;20041;-80
2022/09/02 08:11:32;;;;;;;8.85;2.58;;;20.00;72.40;;;;;;4956091;28;20502;-79
2022/09/02 08:13:58;;;;;;;10.45;2.05;;;20.30;73.00;;;;;;4982762;28;20034;-79
2022/09/02 08:16:24;;;;;;;7.80;2.35;;;20.50;72.80;;;;;;4979408;28;20045;-80
2022/09/02 08:18:50;;;;;;;8.45;1.85;;;20.60;71.60;;;;;;4974308;28;20030;-80
2022/09/02 08:21:16;;;;;;;5.25;2.00;;;20.80;72.10;;;;;;4974849;28;20505;-81
2022/09/02 08:23:41;;;;;;;8.88;2.25;;;21.00;71.60;;;;;;4972077;28;20031;-81
2022/09/02 08:26:08;;;;;;;4.13;1.77;;;21.00;70.90;;;;;;4958874;28;20029;-79
2022/09/02 08:28:34;;;;;;;4.70;1.60;;;21.10;71.90;;;;;;4967957;28;20121;-81
2022/09/02 08:31:03;;;;;;;5.25;1.60;;;21.20;69.40;;;;;;4985356;28;20168;-79
2022/09/02 08:33:29;;;;;;;4.75;1.63;;;21.30;71.30;;;;;;4981815;28;20049;-79
2022/09/02 08:35:55;;;;;;;13.18;2.17;;;21.30;70.10;;;;;;4971569;28;20062;-79
2022/09/02 08:38:21;;;;;;;4.63;1.80;;;21.60;71.00;;;;;;4964161;28;20042;-80
2022/09/02 08:40:46;;;;;;;4.68;1.92;;;21.80;70.70;;;;;;4969641;28;20034;-81
2022/09/02 08:43:38;;;;;;;59.95;5.55;;;22.00;70.60;;;;;;4968160;28;20540;-80
2022/09/02 08:46:05;;;;;;;9.68;2.60;;;22.20;70.20;;;;;;4971555;28;20030;-81
2022/09/02 08:48:54;;;;;;;27.50;3.67;;;22.20;69.80;;;;;;4968921;28;20050;-81
2022/09/02 08:51:30;;;;;;;15.02;3.40;;;22.40;68.30;;;;;;4968287;28;20077;-80
2022/09/02 08:54:35;;;;;;;7.75;2.17;;;22.60;69.20;;;;;;4951787;28;20574;-79
2022/09/02 08:57:01;;;;;;;3.85;1.67;;;22.70;68.10;;;;;;4908074;29;20882;-81
2022/09/02 08:59:27;;;;;;;5.13;1.70;;;22.90;68.10;;;;;;4940793;28;20062;-80
2022/09/02 09:02:22;;;;;;;2.88;2.00;;;23.00;67.70;;;;;;4970653;28;20057;-80
2022/09/02 09:05:00;;;;;;;7.07;1.27;;;23.20;68.50;;;;;;4973162;28;20088;-79
2022/09/02 09:08:05;;;;;;;6.45;1.83;;;23.50;67.00;;;;;;4996759;28;20509;-80
2022/09/02 09:10:37;;;;;;;3.45;1.50;;;23.80;67.40;;;;;;4978448;28;20069;-79
2022/09/02 09:13:13;;;;;;;3.33;1.88;;;23.90;66.40;;;;;;4987067;28;20032;-80
2022/09/02 09:15:49;;;;;;;4.47;1.67;;;24.00;67.50;;;;;;4963865;28;20038;-80
2022/09/02 09:18:16;;;;;;;4.40;1.88;;;24.20;66.50;;;;;;4985436;28;20041;-80
2022/09/02 09:20:42;;;;;;;2.80;1.15;;;24.30;64.10;;;;;;4964577;28;20094;-79
2022/09/02 09:23:29;;;;;;;4.75;1.70;;;24.40;63.30;;;;;;4984895;28;20419;-79
2022/09/02 09:26:18;;;;;;;5.63;1.65;;;24.70;65.50;;;;;;4964262;28;20030;-80
2022/09/02 09:28:46;;;;;;;4.57;2.03;;;24.80;65.50;;;;;;4982148;28;20486;-79
2022/09/02 09:31:19;;;;;;;3.15;1.67;;;25.10;63.00;;;;;;4996232;28;20034;-79
2022/09/02 09:34:01;;;;;;;2.72;1.50;;;25.10;61.90;;;;;;4962546;28;20600;-80
2022/09/02 09:36:47;;;;;;;5.32;1.77;;;25.10;61.60;;;;;;4987607;28;20342;-80
2022/09/02 09:39:29;;;;;;;3.15;1.60;;;25.20;61.60;;;;;;4988739;28;20045;-79
2022/09/02 09:42:00;;;;;;;4.43;1.50;;;25.30;62.40;;;;;;4968254;28;20125;-79
2022/09/02 09:44:38;;;;;;;5.40;1.77;;;25.30;62.70;;;;;;4952175;28;20045;-81
2022/09/02 09:47:06;;;;;;;2.65;1.30;;;25.50;62.70;;;;;;4989830;28;20033;-81
2022/09/02 09:49:32;;;;;;;1.67;1.20;;;25.70;60.40;;;;;;4980333;28;20502;-80
2022/09/02 09:51:59;;;;;;;1.38;1.20;;;25.70;59.80;;;;;;4968171;28;20042;-80
2022/09/02 09:54:25;;;;;;;7.05;1.60;;;25.70;60.90;;;;;;4980649;28;20122;-80
2022/09/02 09:56:51;;;;;;;2.25;1.27;;;25.70;60.40;;;;;;4966953;28;20034;-80
2022/09/02 09:59:45;;;;;;;3.38;1.40;;;25.80;60.90;;;;;;4981716;28;20517;-80
2022/09/02 10:02:22;;;;;;;3.47;1.50;;;25.80;61.10;;;;;;4969068;28;20104;-80
2022/09/02 10:04:47;;;;;;;4.65;1.50;;;25.80;59.10;;;;;;4970203;28;20030;-80
2022/09/02 10:07:13;;;;;;;3.70;1.20;;;25.80;58.80;;;;;;4277975;28;10000366;-80
2022/09/02 10:09:39;;;;;;;5.85;1.67;;;25.90;58.80;;;;;;4977249;28;20038;-78
2022/09/02 10:12:05;;;;;;;5.03;2.15;;;26.00;58.80;;;;;;4956838;28;20026;-80
2022/09/02 10:14:43;;;;;;;5.05;1.83;;;26.10;59.60;;;;;;4983860;28;20065;-81
2022/09/02 10:17:26;;;;;;;7.70;1.50;;;26.10;58.50;;;;;;4981222;28;20034;-81
2022/09/02 10:20:18;;;;;;;6.10;1.70;;;26.20;59.10;;;;;;4982827;28;20047;-81
2022/09/02 10:23:22;;;;;;;5.47;1.73;;;26.40;58.10;;;;;;4970820;28;21107;-80
2022/09/02 10:25:54;;;;;;;5.10;1.52;;;26.50;57.30;;;;;;4978205;28;20073;-81
2022/09/02 10:28:41;;;;;;;8.07;2.30;;;26.50;57.60;;;;;;4971045;28;20537;-81
2022/09/02 10:31:32;;;;;;;4.25;2.20;;;26.50;56.00;;;;;;4984108;28;20060;-81
2022/09/02 10:34:03;;;;;;;5.40;1.83;;;26.50;55.20;;;;;;4987109;28;20038;-80
2022/09/02 10:36:41;;;;;;;3.47;1.45;;;26.50;55.70;;;;;;4985832;28;20038;-80
2022/09/02 10:39:22;;;;;;;3.63;1.20;;;26.50;56.30;;;;;;5001781;28;20034;-81
2022/09/02 10:41:47;;;;;;;0.88;0.82;;;26.50;56.50;;;;;;4640605;28;9999739;-80
2022/09/02 10:44:33;;;;;;;3.83;1.33;;;26.60;56.40;;;;;;4974089;28;20076;-81
2022/09/02 10:47:00;;;;;;;;;;;26.60;54.40;;;;;;4983335;28;20152;-79
2022/09/02 10:49:47;;;;;;;2.50;1.10;;;26.60;55.20;;;;;;4985023;28;20000;-80
2022/09/02 10:52:22;;;;;;;2.65;1.08;;;26.60;52.50;;;;;;4957866;28;21064;-80
2022/09/02 10:55:16;;;;;;;1.20;1.10;;;26.70;51.00;;;;;;4987728;28;20046;-80
2022/09/02 10:58:02;;;;;;;2.92;1.20;;;26.90;51.30;;;;;;4990189;28;20027;-80
2022/09/02 11:00:28;;;;;;;1.15;1.00;;;27.00;49.40;;;;;;4987693;28;20062;-81
2022/09/02 11:03:16;;;;;;;1.73;1.30;;;27.20;47.80;;;;;;4984989;28;20073;-81
2022/09/02 11:06:04;;;;;;;1.80;1.23;;;27.20;49.80;;;;;;4987996;28;20057;-81
2022/09/02 11:08:39;;;;;;;3.72;1.00;;;27.10;49.10;;;;;;4987405;28;20041;-81
2022/09/02 11:11:31;;;;;;;2.05;1.13;;;27.30;48.00;;;;;;4974709;28;20150;-81
2022/09/02 11:14:12;;;;;;;1.00;0.90;;;27.30;48.00;;;;;;4967610;28;20445;-80
2022/09/02 11:16:44;;;;;;;1.45;1.00;;;27.40;48.50;;;;;;4983730;28;20030;-80
2022/09/02 11:19:23;;;;;;;3.65;1.17;;;27.60;48.70;;;;;;4960200;28;20045;-81
2022/09/02 11:21:55;;;;;;;2.58;1.00;;;27.60;46.60;;;;;;4968931;28;20030;-81
2022/09/02 11:24:38;;;;;;;1.13;0.88;;;27.80;48.00;;;;;;4974043;28;20038;-81
2022/09/02 11:27:08;;;;;;;1.75;1.00;;;28.00;47.40;;;;;;4970925;28;20045;-82
2022/09/02 11:29:39;;;;;;;1.35;1.05;;;28.00;46.70;;;;;;4982612;28;20034;-81
2022/09/02 11:32:09;;;;;;;3.08;1.38;;;28.10;45.70;;;;;;4986287;28;20046;-82
2022/09/02 11:35:05;;;;;;;2.85;0.90;;;28.40;51.50;;;;;;4973283;28;20117;-81
2022/09/02 11:37:40;;;;;;;1.70;1.02;;;28.30;47.80;;;;;;4971994;28;20465;-81
2022/09/02 11:40:07;;;;;;;2.45;0.80;;;28.70;48.90;;;;;;4986683;28;20061;-79
2022/09/02 11:43:02;;;;;;;6.93;1.48;;;28.40;47.10;;;;;;4997585;28;20038;-80
2022/09/02 11:45:55;;;;;;;1.40;1.10;;;28.60;47.40;;;;;;4989680;28;20510;-82
2022/09/02 11:48:40;;;;;;;2.42;1.13;;;28.70;49.10;;;;;;4988604;28;20701;-81
2022/09/02 11:51:27;;;;;;;1.55;0.98;;;29.20;47.80;;;;;;4989860;28;20048;-82
2022/09/02 11:53:52;;;;;;;1.40;0.85;;;29.20;45.00;;;;;;5000970;28;20030;-81
2022/09/02 11:56:20;;;;;;;1.40;1.02;;;29.10;43.20;;;;;;4972310;28;20585;-81
2022/09/02 11:58:48;;;;;;;1.85;1.20;;;29.20;46.80;;;;;;4986425;28;20487;-81
2022/09/02 12:01:13;;;;;;;1.10;0.82;;;29.30;47.30;;;;;;4953310;28;20038;-81
2022/09/02 12:03:46;;;;;;;2.65;1.25;;;29.50;47.50;;;;;;4999730;28;20038;-82
2022/09/02 12:06:13;;;;;;;1.60;1.00;;;29.30;46.20;;;;;;4962467;28;20387;-80
2022/09/02 12:08:39;;;;;;;0.73;0.70;;;29.10;44.70;;;;;;4983531;28;20057;-80
2022/09/02 12:11:24;;;;;;;2.22;1.00;;;28.90;44.20;;;;;;4991813;28;20372;-81
2022/09/02 12:13:49;;;;;;;1.25;1.00;;;29.20;47.60;;;;;;4987106;28;20044;-80
2022/09/02 12:16:15;;;;;;;4.40;1.08;;;29.20;45.80;;;;;;4971481;28;20449;-81
2022/09/02 12:18:44;;;;;;;1.35;1.00;;;29.40;46.50;;;;;;4997776;28;20046;-80
2022/09/02 12:21:15;;;;;;;3.97;1.10;;;29.70;45.70;;;;;;4963754;28;20117;-81
2022/09/02 12:23:47;;;;;;;1.58;1.00;;;29.70;44.70;;;;;;4953879;28;20379;-80
2022/09/02 12:26:13;;;;;;;7.55;1.52;;;29.80;44.00;;;;;;5001458;28;20061;-81
2022/09/02 12:28:39;;;;;;;6.90;1.48;;;29.80;42.00;;;;;;4966388;28;20108;-80
2022/09/02 12:31:07;;;;;;;2.00;1.00;;;29.80;43.90;;;;;;4959171;28;20529;-81
2022/09/02 12:33:36;;;;;;;3.65;1.10;;;29.50;43.70;;;;;;5000898;28;20030;-81
2022/09/02 12:36:03;;;;;;;4.43;1.23;;;29.70;45.00;;;;;;4992770;28;20030;-80
2022/09/02 12:38:38;;;;;;;4.22;1.25;;;29.90;44.30;;;;;;4971293;28;20524;-80
2022/09/02 12:41:04;;;;;;;2.30;0.90;;;30.00;43.30;;;;;;4989182;28;20045;-80
2022/09/02 12:43:46;;;;;;;6.68;1.50;;;29.90;44.90;;;;;;4987827;28;20501;-80
2022/09/02 12:46:26;;;;;;;2.47;0.95;;;30.10;44.70;;;;;;5000670;28;20045;-81
2022/09/02 12:49:22;;;;;;;1.33;0.90;;;30.10;43.30;;;;;;4988333;28;20720;-82
2022/09/02 12:52:01;;;;;;;2.80;0.90;;;29.80;43.30;;;;;;4985023;28;20764;-81
2022/09/02 12:54:48;;;;;;;3.30;1.13;;;29.70;44.40;;;;;;4965023;28;20031;-81
2022/09/02 12:57:15;;;;;;;2.80;0.95;;;30.00;42.90;;;;;;4969481;28;22132;-81
2022/09/02 12:59:50;;;;;;;2.75;1.10;;;29.90;43.90;;;;;;4982890;28;20038;-81
2022/09/02 13:02:35;;;;;;;2.25;1.08;;;30.00;43.30;;;;;;4968909;28;20127;-81